createdAt,value
2023-01-19T00:01:24.430Z,98766.00
2023-01-19T00:03:52.403Z,98760.81
2023-01-19T00:06:20.377Z,98764.78
2023-01-19T00:08:51.321Z,98759.25
2023-01-19T00:11:19.424Z,98784.84
2023-01-19T00:13:53.755Z,98779.19
2023-01-19T00:16:23.227Z,98800.63
2023-01-19T00:18:51.977Z,98796.81
2023-01-19T00:21:20.037Z,98800.13
2023-01-19T00:23:51.187Z,98807.44
2023-01-19T00:26:19.361Z,98806.84
2023-01-19T00:28:47.262Z,98808.75
2023-01-19T00:31:15.216Z,98821.00
2023-01-19T00:33:43.175Z,98821.81
2023-01-19T00:36:11.697Z,98837.63
2023-01-19T00:38:40.105Z,98824.75
2023-01-19T00:41:10.206Z,98832.78
2023-01-19T00:43:37.175Z,98838.66
2023-01-19T00:46:05.133Z,98856.59
2023-01-19T00:48:33.118Z,98872.97
2023-01-19T00:51:01.197Z,98872.16
2023-01-19T00:53:32.517Z,98886.78
2023-01-19T00:56:00.624Z,98879.34
2023-01-19T00:58:30.047Z,98891.16
2023-01-19T01:01:03.606Z,98890.56
2023-01-19T01:03:31.836Z,98892.91
2023-01-19T01:05:59.870Z,98884.16
2023-01-19T01:08:27.805Z,98900.94
2023-01-19T01:10:55.772Z,98897.97
2023-01-19T01:13:26.396Z,98903.88
2023-01-19T01:15:57.099Z,98899.84
2023-01-19T01:18:25.371Z,98906.78
2023-01-19T01:20:55.347Z,98910.88
2023-01-19T01:23:24.237Z,98911.34
2023-01-19T01:25:52.212Z,98912.25
2023-01-19T01:28:20.150Z,98913.56
2023-01-19T01:30:48.034Z,98905.53
2023-01-19T01:33:41.012Z,98900.00
2023-01-19T01:36:05.719Z,98898.19
2023-01-19T01:38:33.680Z,98898.69
2023-01-19T01:41:01.621Z,98900.66
2023-01-19T01:43:42.900Z,98890.75
2023-01-19T01:46:10.896Z,98884.63
2023-01-19T01:48:40.236Z,98883.88
2023-01-19T01:51:27.340Z,98878.94
2023-01-19T01:54:03.074Z,98879.84
2023-01-19T01:56:34.169Z,98868.28
2023-01-19T01:59:02.440Z,98888.19
2023-01-19T02:01:46.861Z,98887.72
2023-01-19T02:04:16.249Z,98882.41
2023-01-19T02:07:01.537Z,98879.56
2023-01-19T02:09:46.945Z,98883.88
2023-01-19T02:12:32.319Z,98884.31
2023-01-19T02:15:00.276Z,98882.75
2023-01-19T02:17:28.185Z,98881.09
2023-01-19T02:19:58.151Z,98866.97
2023-01-19T02:22:27.480Z,98868.63
2023-01-19T02:24:56.839Z,98876.16
2023-01-19T02:27:24.806Z,98866.38
2023-01-19T02:29:53.572Z,98882.03
2023-01-19T02:32:21.551Z,98879.13
2023-01-19T02:34:49.528Z,98888.72
2023-01-19T02:37:17.477Z,98880.06
2023-01-19T02:39:46.733Z,98884.53
2023-01-19T02:42:18.432Z,98888.31
2023-01-19T02:44:48.267Z,98886.91
2023-01-19T02:47:16.255Z,98879.56
2023-01-19T02:49:44.196Z,98879.66
2023-01-19T02:52:16.040Z,98891.16
2023-01-19T02:54:49.384Z,98880.03
2023-01-19T02:57:36.705Z,98888.25
2023-01-19T03:00:09.894Z,98892.34
2023-01-19T03:02:44.949Z,98887.66
2023-01-19T03:05:21.959Z,98894.25
2023-01-19T03:07:54.217Z,98895.81
2023-01-19T03:10:24.955Z,98889.75
2023-01-19T03:12:56.150Z,98882.78
2023-01-19T03:15:27.532Z,98899.03
2023-01-19T03:17:55.494Z,98910.75
2023-01-19T03:20:25.624Z,98903.22
2023-01-19T03:22:55.907Z,98891.16
2023-01-19T03:25:23.951Z,98894.66
2023-01-19T03:27:52.303Z,98891.84
2023-01-19T03:30:23.242Z,98895.22
2023-01-19T03:32:52.765Z,98899.84
2023-01-19T03:35:22.995Z,98905.34
2023-01-19T03:37:53.050Z,98900.19
2023-01-19T03:40:21.110Z,98889.38
2023-01-19T03:42:49.090Z,98889.50
2023-01-19T03:45:17.211Z,98878.78
2023-01-19T03:47:46.503Z,98878.78
2023-01-19T03:50:15.941Z,98877.13
2023-01-19T03:52:43.910Z,98876.53
2023-01-19T03:55:12.649Z,98885.53
2023-01-19T03:57:40.775Z,98875.47
2023-01-19T04:00:10.047Z,98868.91
2023-01-19T04:02:38.062Z,98879.34
2023-01-19T04:05:08.305Z,98873.91
2023-01-19T04:07:36.293Z,98889.47
2023-01-19T04:10:04.610Z,98907.72
2023-01-19T04:12:32.556Z,98893.13
2023-01-19T04:15:00.543Z,98903.22
2023-01-19T04:17:28.535Z,98902.50
2023-01-19T04:19:56.504Z,98904.63
2023-01-19T04:22:25.880Z,98910.47
2023-01-19T04:24:53.801Z,98902.97
2023-01-19T04:27:21.833Z,98907.38
2023-01-19T04:29:49.776Z,98895.50
2023-01-19T04:32:17.744Z,98892.63
2023-01-19T04:34:45.739Z,98886.66
2023-01-19T04:37:14.099Z,98892.50
2023-01-19T04:39:43.483Z,98900.47
2023-01-19T04:42:11.395Z,98901.25
2023-01-19T04:44:39.358Z,98901.47
2023-01-19T04:47:07.319Z,98903.47
2023-01-19T04:49:37.634Z,98911.75
2023-01-19T04:52:06.211Z,98915.06
2023-01-19T04:54:34.234Z,98916.69
2023-01-19T04:57:03.593Z,98933.09
2023-01-19T04:59:31.548Z,98934.97
2023-01-19T05:01:59.543Z,98939.09
2023-01-19T05:04:27.760Z,98940.75
2023-01-19T05:06:56.067Z,98948.28
2023-01-19T05:09:24.365Z,98947.75
2023-01-19T05:11:52.273Z,98954.31
2023-01-19T05:14:21.773Z,98951.22
2023-01-19T05:16:49.735Z,98964.00
2023-01-19T05:19:17.703Z,98965.75
2023-01-19T05:21:45.639Z,98969.13
2023-01-19T05:24:13.738Z,98960.47
2023-01-19T05:26:41.701Z,98943.56
2023-01-19T05:29:10.305Z,98972.59
2023-01-19T05:31:39.713Z,98966.09
2023-01-19T05:34:07.691Z,98962.75
2023-01-19T05:36:35.651Z,98974.09
2023-01-19T05:39:03.548Z,98973.88
2023-01-19T05:41:31.540Z,98979.50
2023-01-19T05:43:59.557Z,98970.34
2023-01-19T05:46:27.584Z,98974.09
2023-01-19T05:48:56.907Z,98977.84
2023-01-19T05:51:25.571Z,98974.53
2023-01-19T05:53:53.534Z,98975.66
2023-01-19T05:56:21.537Z,98975.50
2023-01-19T05:58:49.506Z,98983.41
2023-01-19T06:01:17.546Z,98967.38
2023-01-19T06:03:45.568Z,98955.88
2023-01-19T06:06:15.394Z,98972.91
2023-01-19T06:08:43.413Z,98967.94
2023-01-19T06:11:11.377Z,98970.47
2023-01-19T06:13:41.994Z,98957.94
2023-01-19T06:16:10.662Z,98968.06
2023-01-19T06:18:38.676Z,98968.69
2023-01-19T06:21:07.437Z,98976.34
2023-01-19T06:23:36.904Z,98976.19
2023-01-19T06:26:04.947Z,98978.88
2023-01-19T06:28:32.933Z,98984.81
2023-01-19T06:31:01.162Z,98988.97
2023-01-19T06:33:29.195Z,98998.47
2023-01-19T06:35:57.172Z,98997.59
2023-01-19T06:38:25.329Z,98992.00
2023-01-19T06:40:55.343Z,98994.88
2023-01-19T06:43:23.316Z,98995.09
2023-01-19T06:45:51.317Z,99014.56
2023-01-19T06:48:19.339Z,99000.88
2023-01-19T06:50:47.453Z,99014.50
2023-01-19T06:53:16.711Z,98998.41
2023-01-19T06:55:44.810Z,98995.03
2023-01-19T06:58:14.317Z,98997.53
2023-01-19T07:00:43.044Z,99002.16
2023-01-19T07:03:12.599Z,98968.72
2023-01-19T07:05:40.596Z,98983.09
2023-01-19T07:08:08.634Z,98966.47
2023-01-19T07:11:25.949Z,98977.31
2023-01-19T07:13:26.717Z,98953.13
2023-01-19T07:15:54.683Z,98947.34
2023-01-19T07:18:22.647Z,98959.09
2023-01-19T07:20:50.577Z,98960.06
2023-01-19T07:23:18.515Z,98955.94
2023-01-19T07:25:46.838Z,98958.47
2023-01-19T07:28:16.035Z,98960.47
2023-01-19T07:30:46.354Z,98964.44
2023-01-19T07:33:14.393Z,98970.69
2023-01-19T07:35:46.883Z,98960.03
2023-01-19T07:38:14.849Z,98964.00
2023-01-19T07:40:42.936Z,98964.00
2023-01-19T07:43:10.946Z,98978.03
2023-01-19T07:45:39.072Z,98966.78
2023-01-19T07:48:08.631Z,98954.69
2023-01-19T07:50:36.554Z,98950.91
2023-01-19T07:53:07.696Z,98957.16
2023-01-19T07:55:35.684Z,98968.16
2023-01-19T07:58:06.692Z,98965.03
2023-01-19T08:00:35.361Z,98965.13
2023-01-19T08:03:03.997Z,98971.81
2023-01-19T08:05:33.649Z,98967.53
2023-01-19T08:08:01.622Z,98966.44
2023-01-19T08:10:29.699Z,98937.09
2023-01-19T08:12:58.328Z,98969.47
2023-01-19T08:15:26.699Z,98968.41
2023-01-19T08:17:58.691Z,98966.91
2023-01-19T08:20:27.200Z,98969.28
2023-01-19T08:23:00.203Z,98950.25
2023-01-19T08:25:28.777Z,98964.88
2023-01-19T08:27:57.244Z,98957.66
2023-01-19T08:30:26.940Z,98965.03
2023-01-19T08:32:58.151Z,98944.13
2023-01-19T08:35:26.413Z,98959.47
2023-01-19T08:37:54.408Z,98959.53
2023-01-19T08:40:23.772Z,98944.47
2023-01-19T08:42:51.737Z,98963.00
2023-01-19T08:45:19.728Z,98969.25
2023-01-19T08:47:47.761Z,98961.22
2023-01-19T08:50:15.782Z,98981.00
2023-01-19T08:52:43.759Z,98970.81
2023-01-19T08:55:12.342Z,98984.31
2023-01-19T08:57:42.788Z,98977.00
2023-01-19T09:00:11.771Z,98986.34
2023-01-19T09:02:39.810Z,98975.53
2023-01-19T09:05:08.783Z,98984.34
2023-01-19T09:07:37.012Z,98988.81
2023-01-19T09:10:05.208Z,98997.16
2023-01-19T09:12:33.206Z,98986.41
2023-01-19T09:15:02.570Z,98988.81
2023-01-19T09:17:30.581Z,98987.81
2023-01-19T09:19:58.505Z,98984.56
2023-01-19T09:22:26.452Z,98979.06
2023-01-19T09:24:54.489Z,98981.28
2023-01-19T09:27:22.427Z,98980.97
2023-01-19T09:29:52.672Z,98971.84
2023-01-19T09:32:22.977Z,98981.22
2023-01-19T09:34:51.181Z,98982.91
2023-01-19T09:37:19.145Z,98988.63
2023-01-19T09:39:47.204Z,98977.72
2023-01-19T09:42:18.380Z,98974.38
2023-01-19T09:44:46.315Z,98960.91
2023-01-19T09:47:15.490Z,98965.47
2023-01-19T09:49:45.913Z,98959.78
2023-01-19T09:52:13.910Z,98940.84
2023-01-19T09:54:44.454Z,98951.19
2023-01-19T09:57:12.450Z,98943.41
2023-01-19T09:59:40.423Z,98942.03
2023-01-19T10:02:27.642Z,98944.28
2023-01-19T10:05:00.507Z,98939.03
2023-01-19T10:07:35.233Z,98945.41
2023-01-19T10:10:11.106Z,98940.78
2023-01-19T10:12:46.236Z,98945.84
2023-01-19T10:15:18.943Z,98937.81
2023-01-19T10:17:52.349Z,98937.94
2023-01-19T10:20:27.801Z,98930.50
2023-01-19T10:22:55.769Z,98938.34
2023-01-19T10:25:25.063Z,98918.38
2023-01-19T10:27:53.274Z,98919.72
2023-01-19T10:30:23.362Z,98910.13
2023-01-19T10:32:51.619Z,98926.47
2023-01-19T10:35:25.422Z,98923.72
2023-01-19T10:37:54.811Z,98925.81
2023-01-19T10:40:28.370Z,98925.44
2023-01-19T10:42:56.418Z,98913.91
2023-01-19T10:45:25.726Z,98919.84
2023-01-19T10:47:54.138Z,98915.16
2023-01-19T10:50:28.441Z,98902.22
2023-01-19T10:52:57.413Z,98899.38
2023-01-19T10:55:27.225Z,98886.69
2023-01-19T10:57:55.212Z,98900.00
2023-01-19T11:00:37.848Z,98891.06
2023-01-19T11:03:06.557Z,98883.44
2023-01-19T11:05:36.425Z,98890.41
2023-01-19T11:08:13.613Z,98889.13
2023-01-19T11:10:41.595Z,98877.38
2023-01-19T11:13:12.755Z,98867.78
2023-01-19T11:15:43.107Z,98873.22
2023-01-19T11:18:24.070Z,98870.00
2023-01-19T11:20:53.799Z,98887.00
2023-01-19T11:23:26.242Z,98877.69
2023-01-19T11:25:54.474Z,98882.03
2023-01-19T11:28:25.835Z,98861.75
2023-01-19T11:30:58.496Z,98880.22
2023-01-19T11:33:27.398Z,98880.66
2023-01-19T11:36:05.858Z,98866.75
2023-01-19T11:38:33.796Z,98865.13
2023-01-19T11:41:04.281Z,98864.72
2023-01-19T11:43:48.322Z,98853.84
2023-01-19T11:46:17.225Z,98863.25
2023-01-19T11:48:48.469Z,98870.00
2023-01-19T11:51:18.697Z,98881.09
2023-01-19T11:53:49.638Z,98885.38
2023-01-19T11:56:17.627Z,98876.44
2023-01-19T11:58:46.905Z,98871.56
2023-01-19T12:01:21.116Z,98881.50
2023-01-19T12:03:54.713Z,98893.31
2023-01-19T12:06:26.810Z,98894.19
2023-01-19T12:08:56.071Z,98891.75
2023-01-19T12:11:26.442Z,98894.47
2023-01-19T12:13:54.456Z,98890.91
2023-01-19T12:16:23.122Z,98871.72
2023-01-19T12:18:53.429Z,98881.06
2023-01-19T12:21:21.419Z,98896.31
2023-01-19T12:23:54.888Z,98888.88
2023-01-19T12:26:35.168Z,98888.34
2023-01-19T12:29:07.017Z,98893.50
2023-01-19T12:31:35.239Z,98882.56
2023-01-19T12:34:36.140Z,98890.00
2023-01-19T12:37:04.959Z,98886.38
2023-01-19T12:39:35.439Z,98883.38
2023-01-19T12:42:08.870Z,98874.59
2023-01-19T12:44:36.814Z,98900.56
2023-01-19T12:47:20.312Z,98907.03
2023-01-19T12:49:49.006Z,98899.66
2023-01-19T12:52:26.783Z,98918.78
2023-01-19T12:54:59.161Z,98912.78
2023-01-19T12:57:29.083Z,98893.41
2023-01-19T12:59:58.352Z,98917.78
2023-01-19T13:02:42.025Z,98919.34
2023-01-19T13:05:18.241Z,98910.81
2023-01-19T13:08:14.967Z,98907.59
2023-01-19T13:11:26.035Z,98920.63
2023-01-19T13:14:36.508Z,98919.03
2023-01-19T13:17:27.046Z,98920.09
2023-01-19T13:20:33.560Z,98927.13
2023-01-19T13:23:25.155Z,98920.22
2023-01-19T13:26:00.063Z,98928.16
2023-01-19T13:28:32.371Z,98932.72
2023-01-19T13:31:02.651Z,98935.66
2023-01-19T13:33:36.247Z,98911.22
2023-01-19T13:36:04.336Z,98936.53
2023-01-19T13:38:33.226Z,98918.47
2023-01-19T13:41:02.573Z,98923.91
2023-01-19T13:43:32.808Z,98920.03
2023-01-19T13:46:00.845Z,98925.34
2023-01-19T13:48:28.892Z,98901.94
2023-01-19T13:51:02.041Z,98924.09
2023-01-19T13:53:30.626Z,98921.25
2023-01-19T13:56:20.791Z,98914.66
2023-01-19T13:59:09.987Z,98901.97
2023-01-19T14:01:39.282Z,98917.22
2023-01-19T14:04:07.596Z,98914.41
2023-01-19T14:06:38.742Z,98926.31
2023-01-19T14:09:11.697Z,98925.06
2023-01-19T14:11:41.065Z,98914.78
2023-01-19T14:14:23.586Z,98912.84
2023-01-19T14:16:51.586Z,98891.81
2023-01-19T14:19:19.553Z,98901.25
2023-01-19T14:21:47.487Z,98899.59
2023-01-19T14:24:18.724Z,98921.22
2023-01-19T14:26:49.220Z,98905.38
2023-01-19T14:29:19.398Z,98909.63
2023-01-19T14:31:48.444Z,98891.59
2023-01-19T15:02:45.815Z,98890.41
2023-01-19T15:05:14.014Z,98892.06
2023-01-19T15:07:43.192Z,98894.09
2023-01-19T15:10:14.284Z,98900.59
2023-01-19T15:12:42.271Z,98894.53
2023-01-19T15:15:15.288Z,98908.81
2023-01-19T15:17:43.281Z,98889.28
2023-01-19T15:20:16.051Z,98894.84
2023-01-19T15:22:44.370Z,98883.91
2023-01-19T15:25:14.592Z,98894.47
2023-01-19T15:27:42.787Z,98881.63
2023-01-19T15:30:20.932Z,98883.44
2023-01-19T15:32:48.932Z,98882.94
2023-01-19T15:35:22.439Z,98902.25
2023-01-19T15:37:50.648Z,98890.16
2023-01-19T15:40:19.223Z,98884.28
2023-01-19T15:42:47.216Z,98879.09
2023-01-19T15:45:34.517Z,98879.94
2023-01-19T15:48:03.948Z,98880.41
2023-01-19T15:50:33.353Z,98883.25
2023-01-19T15:53:01.318Z,98884.44
2023-01-19T15:55:29.405Z,98878.91
2023-01-19T15:58:01.856Z,98886.13
2023-01-19T16:00:30.420Z,98892.16
2023-01-19T16:02:58.761Z,98910.09
2023-01-19T16:05:37.666Z,98909.50
2023-01-19T16:08:11.847Z,98923.91
2023-01-19T16:10:39.948Z,98933.44
2023-01-19T16:13:07.927Z,98935.81
2023-01-19T16:15:35.931Z,98934.28
2023-01-19T16:18:04.032Z,98927.19
2023-01-19T16:20:32.002Z,98936.16
2023-01-19T16:23:13.540Z,98931.56
2023-01-19T16:25:44.289Z,98920.34
2023-01-19T16:28:12.257Z,98919.66
2023-01-19T16:30:40.292Z,98898.44
2023-01-19T16:33:08.517Z,98890.19
2023-01-19T16:35:36.493Z,98880.53
2023-01-19T16:38:04.431Z,98886.44
2023-01-19T16:40:32.359Z,98903.84
2023-01-19T16:43:01.694Z,98868.50
2023-01-19T16:45:29.612Z,98871.19
2023-01-19T16:47:57.545Z,98866.84
2023-01-19T16:50:25.524Z,98858.09
2023-01-19T16:52:57.288Z,98874.97
2023-01-19T16:55:25.200Z,98879.59
2023-01-19T16:57:53.612Z,98889.59
2023-01-19T17:00:23.198Z,98901.28
2023-01-19T17:02:51.124Z,98894.56
2023-01-19T17:05:19.081Z,98891.13
2023-01-19T17:07:47.028Z,98897.97
2023-01-19T17:10:14.952Z,98887.59
2023-01-19T17:12:42.927Z,98878.06
2023-01-19T17:15:11.576Z,98872.72
2023-01-19T17:17:40.880Z,98881.00
2023-01-19T17:20:10.602Z,98865.91
2023-01-19T17:22:38.785Z,98873.94
2023-01-19T17:25:07.743Z,98868.41
2023-01-19T17:27:36.693Z,98885.72
2023-01-19T17:30:04.845Z,98868.50
2023-01-19T17:32:32.853Z,98868.75
2023-01-19T17:35:02.222Z,98870.63
2023-01-19T17:37:30.191Z,98867.44
2023-01-19T17:39:58.123Z,98867.56
2023-01-19T17:42:26.077Z,98870.63
2023-01-19T17:44:54.026Z,98872.28
2023-01-19T17:47:25.473Z,98872.16
2023-01-19T17:49:53.484Z,98875.94
2023-01-19T17:52:22.922Z,98885.94
2023-01-19T17:54:50.930Z,98901.63
2023-01-19T17:57:18.863Z,98893.41
2023-01-19T17:59:47.319Z,98915.31
2023-01-19T18:02:15.400Z,98909.31
2023-01-19T18:04:43.593Z,98921.66
2023-01-19T18:07:11.545Z,98916.47
2023-01-19T18:09:40.862Z,98920.22
2023-01-19T18:12:09.043Z,98909.03
2023-01-19T18:14:37.040Z,98900.19
2023-01-19T18:17:05.048Z,98906.66
2023-01-19T18:19:33.027Z,98910.41
2023-01-19T18:22:00.965Z,98916.38
2023-01-19T18:24:29.361Z,98902.66
2023-01-19T18:26:58.725Z,98878.53
2023-01-19T18:29:26.746Z,98867.78
2023-01-19T18:31:54.744Z,98879.81
2023-01-19T18:34:22.854Z,98869.81
2023-01-19T18:36:50.830Z,98872.63
2023-01-19T18:39:18.795Z,98874.50
2023-01-19T18:41:46.771Z,98875.34
2023-01-19T18:44:16.154Z,98860.03
2023-01-19T18:46:44.132Z,98887.59
2023-01-19T18:49:12.137Z,98887.72
2023-01-19T18:51:41.582Z,98880.59
2023-01-19T18:54:09.636Z,98895.81
2023-01-19T18:56:37.576Z,98892.38
2023-01-19T18:59:05.535Z,98906.50
2023-01-19T19:01:36.119Z,98918.44
2023-01-19T19:04:04.204Z,98907.09
2023-01-19T19:06:32.192Z,98912.63
2023-01-19T19:09:00.329Z,98923.34
2023-01-19T19:11:28.282Z,98916.28
2023-01-19T19:13:57.262Z,98907.09
2023-01-19T19:16:25.313Z,98910.00
2023-01-19T19:18:54.615Z,98912.22
2023-01-19T19:21:24.016Z,98911.84
2023-01-19T19:23:52.387Z,98917.41
2023-01-19T19:26:20.349Z,98931.19
2023-01-19T19:28:48.494Z,98930.59
2023-01-19T19:31:18.153Z,98940.63
2023-01-19T19:33:46.143Z,98953.59
2023-01-19T19:36:15.515Z,98944.88
2023-01-19T19:38:44.527Z,98954.75
2023-01-19T19:41:14.797Z,98973.13
2023-01-19T19:43:43.182Z,98971.03
2023-01-19T19:46:12.022Z,98980.88
2023-01-19T19:48:40.008Z,98982.50
2023-01-19T19:51:17.604Z,98975.38
2023-01-19T19:53:51.158Z,98973.03
2023-01-19T19:56:21.201Z,98969.59
2023-01-19T19:58:49.432Z,98957.16
2023-01-19T20:01:18.508Z,98961.25
2023-01-19T20:03:46.508Z,98975.56
2023-01-19T20:06:15.639Z,98965.78
2023-01-19T20:08:43.588Z,98968.47
2023-01-19T20:11:14.204Z,98978.22
2023-01-19T20:13:42.902Z,98979.88
2023-01-19T20:16:12.534Z,98991.59
2023-01-19T20:18:40.770Z,98974.19
2023-01-19T20:21:12.436Z,98988.41
2023-01-19T20:23:40.489Z,98988.41
2023-01-19T20:26:09.115Z,98999.94
2023-01-19T20:28:38.431Z,98989.44
2023-01-19T20:31:11.199Z,98998.22
2023-01-19T20:33:39.143Z,98994.06
2023-01-19T20:36:07.314Z,98984.16
2023-01-19T20:38:35.292Z,98998.44
2023-01-19T20:41:03.297Z,99001.91
2023-01-19T20:43:31.546Z,99001.97
2023-01-19T20:46:00.851Z,99010.31
2023-01-19T20:48:28.942Z,99014.56
2023-01-19T20:50:59.362Z,99010.50
2023-01-19T20:53:27.371Z,98998.03
2023-01-19T20:55:55.295Z,99015.63
2023-01-19T20:58:23.491Z,99015.75
2023-01-19T21:00:51.520Z,99006.75
2023-01-19T21:03:20.846Z,99009.81
2023-01-19T21:05:49.136Z,99007.81
2023-01-19T21:08:18.229Z,99016.97
2023-01-19T21:10:46.151Z,99010.22
2023-01-19T21:13:14.300Z,99016.66
2023-01-19T21:15:42.227Z,99013.00
2023-01-19T21:18:10.195Z,99001.78
2023-01-19T21:20:39.482Z,99002.41
2023-01-19T21:23:07.441Z,99004.78
2023-01-19T21:25:37.218Z,99002.41
2023-01-19T21:28:05.209Z,99015.44
2023-01-19T21:30:33.257Z,99016.44
2023-01-19T21:33:02.288Z,99012.16
2023-01-19T21:35:30.230Z,99003.03
2023-01-19T21:37:59.559Z,98999.25
2023-01-19T21:40:27.591Z,98989.72
2023-01-19T21:42:55.554Z,98992.19
2023-01-19T21:45:23.863Z,99001.81
2023-01-19T21:47:51.832Z,98994.84
2023-01-19T21:50:20.111Z,98988.44
2023-01-19T21:52:48.043Z,98981.47
2023-01-19T21:55:17.929Z,98990.22
2023-01-19T21:57:45.899Z,98985.25
2023-01-19T22:00:14.164Z,98988.59
2023-01-19T22:02:45.112Z,98977.38
2023-01-19T22:05:17.426Z,98987.78
2023-01-19T22:07:45.377Z,98967.47
2023-01-19T22:10:13.439Z,98979.09
2023-01-19T22:12:42.773Z,98979.53
2023-01-19T22:15:11.611Z,98967.09
2023-01-19T22:17:39.745Z,98971.22
2023-01-19T22:20:09.327Z,98957.13
2023-01-19T22:22:37.311Z,98959.78
2023-01-19T22:25:06.060Z,98962.13
2023-01-19T22:27:34.061Z,98948.44
2023-01-19T22:30:03.445Z,98951.63
2023-01-19T22:32:31.401Z,98947.66
2023-01-19T22:34:59.378Z,98953.66
2023-01-19T22:37:27.348Z,98946.72
2023-01-19T22:39:55.308Z,98955.13
2023-01-19T22:42:23.225Z,98933.28
2023-01-19T22:44:51.189Z,98944.91
2023-01-19T22:47:20.633Z,98952.38
2023-01-19T22:49:48.580Z,98949.25
2023-01-19T22:52:16.547Z,98945.81
2023-01-19T22:54:44.457Z,98949.94
2023-01-19T22:57:12.438Z,98940.28
2023-01-19T22:59:40.364Z,98954.66
2023-01-19T23:02:09.262Z,98953.81
2023-01-19T23:04:39.550Z,98951.75
2023-01-19T23:07:09.300Z,98941.63
2023-01-19T23:09:38.501Z,98938.06
2023-01-19T23:12:06.622Z,98926.47
2023-01-19T23:14:34.743Z,98927.09
2023-01-19T23:17:02.831Z,98931.22
2023-01-19T23:19:30.778Z,98923.56
2023-01-19T23:22:00.102Z,98896.69
2023-01-19T23:24:28.078Z,98895.81
2023-01-19T23:26:56.015Z,98904.28
2023-01-19T23:29:23.973Z,98904.09
2023-01-19T23:31:53.451Z,98907.81
2023-01-19T23:34:21.454Z,98898.53
2023-01-19T23:36:49.408Z,98898.72
2023-01-19T23:39:19.592Z,98882.78
2023-01-19T23:41:47.706Z,98886.69
2023-01-19T23:44:15.715Z,98886.69
2023-01-19T23:46:44.371Z,98872.03
2023-01-19T23:49:12.450Z,98873.44
2023-01-19T23:51:40.714Z,98884.63
2023-01-19T23:54:08.757Z,98868.28
2023-01-19T23:56:38.419Z,98875.09
2023-01-19T23:59:07.243Z,98868.69
